createdAt,value
2018-04-02T00:00:55.500Z,88.57
2018-04-02T00:01:55.469Z,88.76
2018-04-02T00:02:55.472Z,89.23
2018-04-02T00:03:55.455Z,88.67
2018-04-02T00:04:55.409Z,88.95
2018-04-02T00:05:55.398Z,88.76
2018-04-02T00:06:55.395Z,89.52
2018-04-02T00:07:55.386Z,89.80
2018-04-02T00:08:55.365Z,89.90
2018-04-02T00:09:55.324Z,89.80
2018-04-02T00:10:55.311Z,89.90
2018-04-02T00:11:55.291Z,89.71
2018-04-02T00:12:55.288Z,89.71
2018-04-02T00:13:55.257Z,89.80
2018-04-02T00:14:55.242Z,89.71
2018-04-02T00:15:55.229Z,90.14
2018-04-02T00:16:55.177Z,90.42
2018-04-02T00:17:55.172Z,90.05
2018-04-02T00:18:55.146Z,90.33
2018-04-02T00:19:55.129Z,90.80
2018-04-02T00:20:55.104Z,91.19
2018-04-02T00:21:55.082Z,90.80
2018-04-02T00:22:55.072Z,91.28
2018-04-02T00:23:55.054Z,90.90
2018-04-02T00:24:55.025Z,91.19
2018-04-02T00:25:55.055Z,91.19
2018-04-02T00:26:55.006Z,91.38
2018-04-02T00:27:54.969Z,90.99
2018-04-02T00:28:54.947Z,90.99
2018-04-02T00:29:54.959Z,91.09
2018-04-02T00:30:54.960Z,91.09
2018-04-02T00:31:54.935Z,91.09
2018-04-02T00:32:54.870Z,90.90
2018-04-02T00:33:54.938Z,91.09
2018-04-02T00:34:54.847Z,91.56
2018-04-02T00:35:54.832Z,91.38
2018-04-02T00:36:54.791Z,91.56
2018-04-02T00:37:54.772Z,92.13
2018-04-02T00:38:54.769Z,92.61
2018-04-02T00:39:54.739Z,92.32
2018-04-02T00:40:54.714Z,92.04
2018-04-02T00:41:54.700Z,92.13
2018-04-02T00:42:54.692Z,92.32
2018-04-02T00:43:54.694Z,92.42
2018-04-02T00:44:54.637Z,92.23
2018-04-02T00:45:54.624Z,91.75
2018-04-02T00:46:54.606Z,91.94
2018-04-02T00:47:54.579Z,91.85
2018-04-02T00:48:54.559Z,92.04
2018-04-02T00:49:54.550Z,91.56
2018-04-02T00:50:54.532Z,91.85
2018-04-02T00:51:54.498Z,91.56
2018-04-02T00:52:54.482Z,91.85
2018-04-02T00:53:54.477Z,92.32
2018-04-02T00:54:54.452Z,91.94
2018-04-02T00:55:54.423Z,91.94
2018-04-02T00:56:54.407Z,91.56
2018-04-02T00:57:54.389Z,92.32
2018-04-02T00:58:54.372Z,92.61
2018-04-02T00:59:54.344Z,92.42
2018-04-02T01:00:54.331Z,92.04
2018-04-02T01:01:54.325Z,92.61
2018-04-02T01:02:54.321Z,92.32
2018-04-02T01:03:54.270Z,92.90
2018-04-02T01:04:54.249Z,92.90
2018-04-02T01:05:54.247Z,92.71
2018-04-02T01:06:54.229Z,92.90
2018-04-02T01:07:54.193Z,93.08
2018-04-02T01:08:54.168Z,93.37
2018-04-02T01:09:54.158Z,92.90
2018-04-02T01:10:54.139Z,93.56
2018-04-02T01:11:54.112Z,93.56
2018-04-02T01:12:54.096Z,93.84
2018-04-02T01:13:54.076Z,93.75
2018-04-02T01:14:54.054Z,93.75
2018-04-02T01:15:54.038Z,93.51
2018-04-02T01:16:54.047Z,93.99
2018-04-02T01:17:54.020Z,94.32
2018-04-02T01:18:53.975Z,93.94
2018-04-02T01:19:53.954Z,94.18
2018-04-02T01:20:53.941Z,94.60
2018-04-02T01:21:53.935Z,94.70
2018-04-02T01:22:53.899Z,94.56
2018-04-02T01:23:53.876Z,94.65
2018-04-02T01:24:53.861Z,94.27
2018-04-02T01:25:53.841Z,94.60
2018-04-02T01:26:53.843Z,94.42
2018-04-02T01:27:53.798Z,94.23
2018-04-02T01:28:53.778Z,94.60
2018-04-02T01:29:53.790Z,94.79
2018-04-02T01:30:53.747Z,94.23
2018-04-02T01:31:53.737Z,93.84
2018-04-02T01:32:53.710Z,93.56
2018-04-02T01:33:53.689Z,93.56
2018-04-02T01:34:53.665Z,92.99
2018-04-02T01:35:53.642Z,92.32
2018-04-02T01:36:53.630Z,92.04
2018-04-02T01:37:53.609Z,91.19
2018-04-02T01:38:53.587Z,92.04
2018-04-02T01:39:53.565Z,92.13
2018-04-02T01:40:53.549Z,92.51
2018-04-02T01:41:53.532Z,92.51
2018-04-02T01:42:53.510Z,92.80
2018-04-02T01:43:53.486Z,92.61
2018-04-02T01:44:53.475Z,92.61
2018-04-02T01:45:53.468Z,92.32
2018-04-02T01:46:53.448Z,92.23
2018-04-02T01:47:53.410Z,91.94
2018-04-02T01:48:53.414Z,92.23
2018-04-02T01:49:53.383Z,91.56
2018-04-02T01:50:53.353Z,92.04
2018-04-02T01:51:53.333Z,92.51
2018-04-02T01:52:53.324Z,92.42
2018-04-02T01:53:53.313Z,92.32
2018-04-02T01:54:53.272Z,91.94
2018-04-02T01:55:53.252Z,92.04
2018-04-02T01:56:53.252Z,92.23
2018-04-02T01:57:53.232Z,92.23
2018-04-02T01:58:53.197Z,92.04
2018-04-02T01:59:53.180Z,92.51
2018-04-02T02:00:53.168Z,92.04
2018-04-02T02:01:53.152Z,92.51
2018-04-02T02:02:53.117Z,92.23
2018-04-02T02:03:53.106Z,91.56
2018-04-02T02:04:53.089Z,91.38
2018-04-02T02:05:53.063Z,92.04
2018-04-02T02:06:53.043Z,91.80
2018-04-02T02:07:53.036Z,91.61
2018-04-02T02:08:53.007Z,91.66
2018-04-02T02:09:52.991Z,91.80
2018-04-02T02:10:52.964Z,91.80
2018-04-02T02:11:52.970Z,91.42
2018-04-02T02:12:52.945Z,91.13
2018-04-02T02:13:52.985Z,90.66
2018-04-02T02:14:52.884Z,91.04
2018-04-02T02:15:52.867Z,90.66
2018-04-02T02:16:52.864Z,90.56
2018-04-02T02:17:52.844Z,90.37
2018-04-02T02:18:52.805Z,89.33
2018-04-02T02:19:52.794Z,88.67
2018-04-02T02:20:52.781Z,88.19
2018-04-02T02:21:52.767Z,87.71
2018-04-02T02:22:52.732Z,87.14
2018-04-02T02:23:52.715Z,86.10
2018-04-02T02:24:52.697Z,86.00
2018-04-02T02:25:52.701Z,86.00
2018-04-02T02:26:52.665Z,86.29
2018-04-02T02:27:52.635Z,86.53
2018-04-02T02:28:52.619Z,86.43
2018-04-02T02:29:52.595Z,86.82
2018-04-02T02:30:52.577Z,86.34
2018-04-02T02:31:52.555Z,86.53
2018-04-02T02:32:52.544Z,86.43
2018-04-02T02:33:52.537Z,87.19
2018-04-02T02:34:52.498Z,86.91
2018-04-02T02:35:52.495Z,86.91
2018-04-02T02:36:52.480Z,87.10
2018-04-02T02:37:52.442Z,86.91
2018-04-02T02:38:52.424Z,87.29
2018-04-02T02:39:52.418Z,87.38
2018-04-02T02:40:52.399Z,88.15
2018-04-02T02:41:52.363Z,88.24
2018-04-02T02:42:52.349Z,87.95
2018-04-02T02:43:52.327Z,88.62
2018-04-02T02:44:52.319Z,88.53
2018-04-02T02:45:52.341Z,88.53
2018-04-02T02:46:52.265Z,88.43
2018-04-02T02:47:52.255Z,88.71
2018-04-02T02:48:52.246Z,88.15
2018-04-02T02:49:52.207Z,88.43
2018-04-02T02:50:52.189Z,87.76
2018-04-02T02:51:52.179Z,86.91
2018-04-02T02:52:52.183Z,86.76
2018-04-02T02:53:52.130Z,87.05
2018-04-02T02:54:52.113Z,86.38
2018-04-02T02:55:52.101Z,87.14
2018-04-02T02:56:52.083Z,88.19
2018-04-02T02:57:52.053Z,88.47
2018-04-02T02:58:52.042Z,88.15
2018-04-02T02:59:52.030Z,88.34
2018-04-02T03:00:52.002Z,87.86
2018-04-02T03:01:51.980Z,87.67
2018-04-02T03:02:51.962Z,86.91
2018-04-02T03:03:51.956Z,86.53
2018-04-02T03:04:51.924Z,86.34
2018-04-02T03:05:51.919Z,87.19
2018-04-02T03:06:51.926Z,87.67
2018-04-02T03:07:51.878Z,87.57
2018-04-02T03:08:51.849Z,86.82
2018-04-02T03:09:51.825Z,86.34
2018-04-02T03:10:51.812Z,85.58
2018-04-02T03:11:51.804Z,85.11
2018-04-02T03:12:51.768Z,85.30
2018-04-02T03:13:51.781Z,85.20
2018-04-02T03:14:51.759Z,85.11
2018-04-02T03:15:51.711Z,84.82
2018-04-02T03:16:51.693Z,84.53
2018-04-02T03:17:51.667Z,84.91
2018-04-02T03:18:51.656Z,84.53
2018-04-02T03:19:51.757Z,84.82
2018-04-02T03:20:51.617Z,84.82
2018-04-02T03:21:51.592Z,84.34
2018-04-02T03:22:51.584Z,84.34
2018-04-02T03:23:51.565Z,84.91
2018-04-02T03:24:51.545Z,85.81
2018-04-02T03:25:51.547Z,85.49
2018-04-02T03:26:51.513Z,85.15
2018-04-02T03:27:51.475Z,85.91
2018-04-02T03:28:51.457Z,87.14
2018-04-02T03:29:51.433Z,87.67
2018-04-02T03:30:51.432Z,88.85
2018-04-02T03:31:51.402Z,88.38
2018-04-02T03:32:51.383Z,88.95
2018-04-02T03:33:51.360Z,89.14
2018-04-02T03:34:51.346Z,89.47
2018-04-02T03:35:51.324Z,89.86
2018-04-02T03:36:51.326Z,90.14
2018-04-02T03:37:51.317Z,90.23
2018-04-02T03:38:51.272Z,90.52
2018-04-02T03:39:51.332Z,90.61
2018-04-02T03:40:51.227Z,90.80
2018-04-02T03:41:51.236Z,91.38
2018-04-02T03:42:51.194Z,91.19
2018-04-02T03:43:51.176Z,91.38
2018-04-02T03:44:51.164Z,91.75
2018-04-02T03:45:51.135Z,91.66
2018-04-02T03:46:51.117Z,91.66
2018-04-02T03:47:51.089Z,92.23
2018-04-02T03:48:51.089Z,91.56
2018-04-02T03:49:51.058Z,91.56
2018-04-02T03:50:51.034Z,91.75
2018-04-02T03:51:51.015Z,91.66
2018-04-02T03:52:50.994Z,91.47
2018-04-02T03:53:50.980Z,91.66
2018-04-02T03:54:50.960Z,91.47
2018-04-02T03:55:50.930Z,91.75
2018-04-02T03:56:50.932Z,91.66
2018-04-02T03:57:50.897Z,92.04
2018-04-02T03:58:50.895Z,92.04
2018-04-02T03:59:50.857Z,92.32
2018-04-02T04:00:50.839Z,92.23
2018-04-02T04:01:50.816Z,92.51
2018-04-02T04:02:50.802Z,92.71
2018-04-02T04:03:50.796Z,92.23
2018-04-02T04:04:50.769Z,92.04
2018-04-02T04:05:50.737Z,92.51
2018-04-02T04:06:50.717Z,92.13
2018-04-02T04:07:50.705Z,92.23
2018-04-02T04:08:50.693Z,92.04
2018-04-02T04:09:50.664Z,92.04
2018-04-02T04:10:50.642Z,92.23
2018-04-02T04:11:50.625Z,92.04
2018-04-02T04:12:50.604Z,92.23
2018-04-02T04:13:50.633Z,92.51
2018-04-02T04:14:50.565Z,92.23
2018-04-02T04:15:50.555Z,92.04
2018-04-02T04:16:50.535Z,92.32
2018-04-02T04:17:50.516Z,92.13
2018-04-02T04:18:50.497Z,91.66
2018-04-02T04:19:50.471Z,90.80
2018-04-02T04:20:50.503Z,90.61
2018-04-02T04:21:50.440Z,91.75
2018-04-02T04:22:50.419Z,91.56
2018-04-02T04:23:50.396Z,90.90
2018-04-02T04:24:50.382Z,90.80
2018-04-02T04:25:50.352Z,90.90
2018-04-02T04:26:50.332Z,90.61
2018-04-02T04:27:50.314Z,90.80
2018-04-02T04:28:50.300Z,91.19
2018-04-02T04:29:50.273Z,91.19
2018-04-02T04:30:50.256Z,91.09
2018-04-02T04:31:50.245Z,90.71
2018-04-02T04:32:50.212Z,91.56
2018-04-02T04:33:50.191Z,91.66
2018-04-02T04:34:50.172Z,91.56
2018-04-02T04:35:50.175Z,91.75
2018-04-02T04:36:50.146Z,91.75
2018-04-02T04:37:50.114Z,91.75
2018-04-02T04:38:50.123Z,92.32
2018-04-02T04:39:50.076Z,91.66
2018-04-02T04:40:50.068Z,91.38
2018-04-02T04:41:50.037Z,91.85
2018-04-02T04:42:50.025Z,91.38
2018-04-02T04:43:50.005Z,91.47
2018-04-02T04:44:49.978Z,91.19
2018-04-02T04:45:49.963Z,91.38
2018-04-02T04:46:49.965Z,91.28
2018-04-02T04:47:49.939Z,91.75
2018-04-02T04:48:49.900Z,91.09
2018-04-02T04:49:49.883Z,91.09
2018-04-02T04:50:49.896Z,91.28
2018-04-02T04:51:49.870Z,91.09
2018-04-02T04:52:49.824Z,91.28
2018-04-02T04:53:49.827Z,91.75
2018-04-02T04:54:49.789Z,91.47
2018-04-02T04:55:49.792Z,91.56
2018-04-02T04:56:49.766Z,91.56
2018-04-02T04:57:49.735Z,91.56
2018-04-02T04:58:49.710Z,91.94
2018-04-02T04:59:49.697Z,91.38
2018-04-02T05:00:49.671Z,91.19
2018-04-02T05:01:49.680Z,91.66
2018-04-02T05:02:49.662Z,91.28
2018-04-02T05:03:49.622Z,91.75
2018-04-02T05:04:49.589Z,92.13
2018-04-02T05:05:49.581Z,92.04
2018-04-02T05:06:49.595Z,92.23
2018-04-02T05:07:49.564Z,92.04
2018-04-02T05:08:49.524Z,91.94
2018-04-02T05:09:49.507Z,92.51
2018-04-02T05:10:49.491Z,92.80
2018-04-02T05:11:49.458Z,92.51
2018-04-02T05:12:49.487Z,92.32
2018-04-02T05:13:49.420Z,92.04
2018-04-02T05:14:49.398Z,92.04
2018-04-02T05:15:49.394Z,92.23
2018-04-02T05:16:49.358Z,92.32
2018-04-02T05:17:49.347Z,92.66
2018-04-02T05:18:49.325Z,93.04
2018-04-02T05:19:49.327Z,93.13
2018-04-02T05:20:49.300Z,93.80
2018-04-02T05:21:49.267Z,93.84
2018-04-02T05:22:49.284Z,93.75
2018-04-02T05:23:49.246Z,93.08
2018-04-02T05:24:49.205Z,93.08
2018-04-02T05:25:49.189Z,93.27
2018-04-02T05:26:49.183Z,92.61
2018-04-02T05:27:49.150Z,92.90
2018-04-02T05:28:49.120Z,93.27
2018-04-02T05:29:49.131Z,92.99
2018-04-02T05:30:49.083Z,92.61
2018-04-02T05:31:49.079Z,92.80
2018-04-02T05:32:49.047Z,92.71
2018-04-02T05:33:49.034Z,92.61
2018-04-02T05:34:49.024Z,92.80
2018-04-02T05:35:48.992Z,92.90
2018-04-02T05:36:48.964Z,92.94
2018-04-02T05:37:48.959Z,93.27
2018-04-02T05:38:48.944Z,93.23
2018-04-02T05:39:48.910Z,93.46
2018-04-02T05:40:48.894Z,93.65
2018-04-02T05:41:48.886Z,93.56
2018-04-02T05:42:48.872Z,93.27
2018-04-02T05:43:48.832Z,92.90
2018-04-02T05:44:48.816Z,93.27
2018-04-02T05:45:48.807Z,93.27
2018-04-02T05:46:48.786Z,93.65
2018-04-02T05:47:48.776Z,93.75
2018-04-02T05:48:48.730Z,93.18
2018-04-02T05:49:48.709Z,93.08
2018-04-02T05:50:48.712Z,92.80
2018-04-02T05:51:48.688Z,93.18
2018-04-02T05:52:48.654Z,92.80
2018-04-02T05:53:48.647Z,92.99
2018-04-02T05:54:48.642Z,92.99
2018-04-02T05:55:48.610Z,92.80
2018-04-02T05:56:48.589Z,93.18
2018-04-02T05:57:48.610Z,93.37
2018-04-02T05:58:48.549Z,93.56
2018-04-02T05:59:48.540Z,93.18
2018-04-02T06:00:48.500Z,92.99
2018-04-02T06:01:48.479Z,92.99
2018-04-02T06:02:48.455Z,92.99
2018-04-02T06:03:48.443Z,93.08
2018-04-02T06:04:48.424Z,92.99
2018-04-02T06:05:48.433Z,92.32
2018-04-02T06:06:48.416Z,92.51
2018-04-02T06:07:48.356Z,91.94
2018-04-02T06:08:48.341Z,92.32
2018-04-02T06:09:48.321Z,92.23
2018-04-02T06:10:48.312Z,91.66
2018-04-02T06:11:48.300Z,91.80
2018-04-02T06:12:48.290Z,91.23
2018-04-02T06:13:48.281Z,90.94
2018-04-02T06:14:48.223Z,90.94
2018-04-02T06:15:48.209Z,91.19
2018-04-02T06:16:48.187Z,90.80
2018-04-02T06:17:48.206Z,90.99
2018-04-02T06:18:48.184Z,90.99
2018-04-02T06:19:48.148Z,91.28
2018-04-02T06:20:48.136Z,91.28
2018-04-02T06:21:48.096Z,91.19
2018-04-02T06:22:48.097Z,90.66
2018-04-02T06:23:48.067Z,91.04
2018-04-02T06:24:48.036Z,90.09
2018-04-02T06:25:48.031Z,90.00
2018-04-02T06:26:48.003Z,89.80
2018-04-02T06:27:48.029Z,89.52
2018-04-02T06:28:47.961Z,89.23
2018-04-02T06:29:47.943Z,89.71
2018-04-02T06:30:47.924Z,90.00
2018-04-02T06:31:47.903Z,90.19
2018-04-02T06:32:47.875Z,90.80
2018-04-02T06:33:47.858Z,90.85
2018-04-02T06:34:47.841Z,90.85
2018-04-02T06:35:47.846Z,90.28
2018-04-02T06:36:47.810Z,90.19
2018-04-02T06:37:47.795Z,91.04
2018-04-02T06:38:47.799Z,91.04
2018-04-02T06:39:47.748Z,90.37
2018-04-02T06:40:47.748Z,90.37
2018-04-02T06:41:47.706Z,90.09
2018-04-02T06:42:47.686Z,90.28
2018-04-02T06:43:47.679Z,90.19
2018-04-02T06:44:47.657Z,90.09
2018-04-02T06:45:47.633Z,90.47
2018-04-02T06:46:47.653Z,90.00
2018-04-02T06:47:47.624Z,89.23
2018-04-02T06:48:47.607Z,89.71
2018-04-02T06:49:47.557Z,90.09
2018-04-02T06:50:47.547Z,90.47
2018-04-02T06:51:47.525Z,89.90
2018-04-02T06:52:47.497Z,90.19
2018-04-02T06:53:47.517Z,90.37
2018-04-02T06:54:47.484Z,89.90
2018-04-02T06:55:47.493Z,89.80
2018-04-02T06:56:47.430Z,88.95
2018-04-02T06:57:47.408Z,89.23
2018-04-02T06:58:47.411Z,88.19
2018-04-02T06:59:47.410Z,88.57
2018-04-02T07:00:47.352Z,88.23
2018-04-02T07:01:47.349Z,87.47
2018-04-02T07:02:47.312Z,88.04
2018-04-02T07:03:47.322Z,87.47
2018-04-02T07:04:47.342Z,87.09
2018-04-02T07:05:47.260Z,87.28
2018-04-02T07:06:47.251Z,87.09
2018-04-02T07:07:47.217Z,86.99
2018-04-02T07:08:47.207Z,86.71
2018-04-02T07:09:47.207Z,86.90
2018-04-02T07:10:47.171Z,86.61
2018-04-02T07:11:47.146Z,86.52
2018-04-02T07:12:47.128Z,86.24
2018-04-02T07:13:47.130Z,86.05
2018-04-02T07:14:47.095Z,85.76
2018-04-02T07:15:47.080Z,85.61
2018-04-02T07:16:47.094Z,85.04
2018-04-02T07:17:47.032Z,84.66
2018-04-02T07:18:47.022Z,84.28
2018-04-02T07:19:47.017Z,84.56
2018-04-02T07:20:47.019Z,84.47
2018-04-02T07:21:46.968Z,84.47
2018-04-02T07:22:46.960Z,84.19
2018-04-02T07:23:46.945Z,84.81
2018-04-02T07:24:46.920Z,84.91
2018-04-02T07:25:46.901Z,85.19
2018-04-02T07:26:46.896Z,85.19
2018-04-02T07:27:46.863Z,85.00
2018-04-02T07:28:46.837Z,85.19
2018-04-02T07:29:46.827Z,85.10
2018-04-02T07:30:46.811Z,86.33
2018-04-02T07:31:46.796Z,86.24
2018-04-02T07:32:46.777Z,86.05
2018-04-02T07:33:46.786Z,85.86
2018-04-02T07:34:46.731Z,85.57
2018-04-02T07:35:46.725Z,85.38
2018-04-02T07:36:46.698Z,85.57
2018-04-02T07:37:46.672Z,85.66
2018-04-02T07:38:46.668Z,85.57
2018-04-02T07:39:46.645Z,85.47
2018-04-02T07:40:46.612Z,85.80
2018-04-02T07:41:46.611Z,84.66
2018-04-02T07:42:46.588Z,84.47
2018-04-02T07:43:46.566Z,84.00
2018-04-02T07:44:46.546Z,83.71
2018-04-02T07:45:46.546Z,83.09
2018-04-02T07:46:46.567Z,82.86
2018-04-02T07:47:46.504Z,82.99
2018-04-02T07:48:46.483Z,82.67
2018-04-02T07:49:46.464Z,82.80
2018-04-02T07:50:46.440Z,82.90
2018-04-02T07:51:46.472Z,82.42
2018-04-02T07:52:46.411Z,81.56
2018-04-02T07:53:46.392Z,80.99
2018-04-02T07:54:46.417Z,80.84
2018-04-02T07:55:46.365Z,80.27
2018-04-02T07:56:46.348Z,79.89
2018-04-02T07:57:46.313Z,79.22
2018-04-02T07:58:46.323Z,78.94
2018-04-02T07:59:46.316Z,79.32
2018-04-02T08:00:46.259Z,79.03
2018-04-02T08:01:46.251Z,79.51
2018-04-02T08:02:46.270Z,79.22
2018-04-02T08:03:46.251Z,79.41
2018-04-02T08:04:46.198Z,79.03
2018-04-02T08:05:46.176Z,79.03
2018-04-02T08:06:46.210Z,78.94
2018-04-02T08:07:46.146Z,78.65
2018-04-02T08:08:46.132Z,78.22
2018-04-02T08:09:46.111Z,77.07
2018-04-02T08:10:46.132Z,76.79
2018-04-02T08:11:46.076Z,75.96
2018-04-02T08:12:46.061Z,75.87
2018-04-02T08:13:46.056Z,74.73
2018-04-02T08:14:46.055Z,74.63
2018-04-02T08:15:46.056Z,74.12
2018-04-02T08:16:45.993Z,74.98
2018-04-02T08:17:45.975Z,74.88
2018-04-02T08:18:45.968Z,75.55
2018-04-02T08:19:45.981Z,76.21
2018-04-02T08:20:45.931Z,75.74
2018-04-02T08:21:45.907Z,74.79
2018-04-02T08:22:45.905Z,75.30
2018-04-02T08:23:45.896Z,74.25
2018-04-02T08:24:45.907Z,74.82
2018-04-02T08:25:45.861Z,74.69
2018-04-02T08:26:45.845Z,75.11
2018-04-02T08:27:45.815Z,75.11
2018-04-02T08:28:45.807Z,75.11
2018-04-02T08:29:45.784Z,74.44
2018-04-02T08:30:45.761Z,74.25
2018-04-02T08:31:45.768Z,74.35
2018-04-02T08:32:45.730Z,74.25
2018-04-02T08:33:45.706Z,74.12
2018-04-02T08:34:45.702Z,74.98
2018-04-02T08:35:45.697Z,74.69
2018-04-02T08:36:45.655Z,75.64
2018-04-02T08:37:45.679Z,75.74
2018-04-02T08:38:45.671Z,74.69
2018-04-02T08:39:45.661Z,74.92
2018-04-02T08:40:45.600Z,74.44
2018-04-02T08:41:45.587Z,73.68
2018-04-02T08:42:45.591Z,74.35
2018-04-02T08:43:45.565Z,74.25
2018-04-02T08:44:45.541Z,74.10
2018-04-02T08:45:45.536Z,73.14
2018-04-02T08:46:45.525Z,72.72
2018-04-02T08:47:45.502Z,73.33
2018-04-02T08:48:45.473Z,72.86
2018-04-02T08:49:45.454Z,73.33
2018-04-02T08:50:45.455Z,72.28
2018-04-02T08:51:45.421Z,72.38
2018-04-02T08:52:45.398Z,73.14
2018-04-02T08:53:45.417Z,72.96
2018-04-02T08:54:45.376Z,72.16
2018-04-02T08:55:45.372Z,72.92
2018-04-02T08:56:45.450Z,73.11
2018-04-02T08:57:45.344Z,73.49
2018-04-02T08:58:45.352Z,74.06
2018-04-02T08:59:45.314Z,73.52
2018-04-02T09:00:45.361Z,73.52
2018-04-02T09:01:45.268Z,72.48
2018-04-02T09:02:45.257Z,72.67
2018-04-02T09:03:45.275Z,72.96
2018-04-02T09:04:45.249Z,72.28
2018-04-02T09:05:45.211Z,72.57
2018-04-02T09:06:45.189Z,72.57
2018-04-02T09:07:45.188Z,72.48
2018-04-02T09:08:45.159Z,72.76
2018-04-02T09:09:45.137Z,72.92
2018-04-02T09:10:45.143Z,73.39
2018-04-02T09:11:45.114Z,73.33
2018-04-02T09:12:45.121Z,72.86
2018-04-02T09:13:45.081Z,72.67
2018-04-02T09:14:45.080Z,72.48
2018-04-02T09:15:45.065Z,72.48
2018-04-02T09:16:45.037Z,72.19
2018-04-02T09:17:45.039Z,71.52
2018-04-02T09:18:44.997Z,70.95
2018-04-02T09:19:44.983Z,70.57
2018-04-02T09:20:44.979Z,70.47
2018-04-02T09:21:44.943Z,70.09
2018-04-02T09:22:44.954Z,70.67
2018-04-02T09:23:44.938Z,70.86
2018-04-02T09:24:44.963Z,70.67
2018-04-02T09:25:44.888Z,70.38
2018-04-02T09:26:44.936Z,69.90
2018-04-02T09:27:44.885Z,69.71
2018-04-02T09:28:44.848Z,69.43
2018-04-02T09:29:44.833Z,70.38
2018-04-02T09:30:44.814Z,70.00
2018-04-02T09:31:44.815Z,70.09
2018-04-02T09:32:44.846Z,69.81
2018-04-02T09:33:44.783Z,70.76
2018-04-02T09:34:44.760Z,70.76
2018-04-02T09:35:44.739Z,69.90
2018-04-02T09:36:44.742Z,69.77
2018-04-02T09:37:44.697Z,70.82
2018-04-02T09:38:44.693Z,70.09
2018-04-02T09:39:44.687Z,69.52
2018-04-02T09:40:44.690Z,69.04
2018-04-02T09:41:44.652Z,68.76
2018-04-02T09:42:44.660Z,68.66
2018-04-02T09:43:44.614Z,68.57
2018-04-02T09:44:44.609Z,68.28
2018-04-02T09:45:44.592Z,67.71
2018-04-02T09:46:44.559Z,67.65
2018-04-02T09:47:44.565Z,67.17
2018-04-02T09:48:44.559Z,67.04
2018-04-02T09:49:44.539Z,66.94
2018-04-02T09:50:44.512Z,67.07
2018-04-02T09:51:44.482Z,66.69
2018-04-02T09:52:44.478Z,66.41
2018-04-02T09:53:44.453Z,66.15
2018-04-02T09:54:44.458Z,65.26
2018-04-02T09:55:44.430Z,65.36
2018-04-02T09:56:44.428Z,66.12
2018-04-02T09:57:44.401Z,66.78
2018-04-02T09:58:44.403Z,66.78
2018-04-02T09:59:44.365Z,66.88
2018-04-02T10:00:44.364Z,66.85
2018-04-02T10:01:44.337Z,66.85
2018-04-02T10:02:44.397Z,67.61
2018-04-02T10:03:44.308Z,68.28
2018-04-02T10:04:44.473Z,68.95
2018-04-02T10:05:44.305Z,67.83
2018-04-02T10:06:44.258Z,67.46
2018-04-02T10:07:44.275Z,67.65
2018-04-02T10:08:44.254Z,66.98
2018-04-02T10:09:44.247Z,66.02
2018-04-02T10:10:44.196Z,66.22
2018-04-02T10:11:44.178Z,64.88
2018-04-02T10:12:44.173Z,64.12
2018-04-02T10:13:44.167Z,65.17
2018-04-02T10:14:44.146Z,65.07
2018-04-02T10:15:44.124Z,65.83
2018-04-02T10:16:44.120Z,66.22
2018-04-02T10:17:44.116Z,66.69
2018-04-02T10:18:44.077Z,66.02
2018-04-02T10:19:44.084Z,65.96
2018-04-02T10:20:44.116Z,65.45
2018-04-02T10:21:44.076Z,65.93
2018-04-02T10:22:44.049Z,66.31
2018-04-02T10:23:44.017Z,66.12
2018-04-02T10:24:43.980Z,65.55
2018-04-02T10:25:43.964Z,66.12
2018-04-02T10:26:43.975Z,65.96
2018-04-02T10:27:43.933Z,65.87
2018-04-02T10:28:43.930Z,65.10
2018-04-02T10:29:43.923Z,65.20
2018-04-02T10:30:43.914Z,64.56
2018-04-02T10:31:43.883Z,64.47
2018-04-02T10:32:43.881Z,64.09
2018-04-02T10:33:43.853Z,64.09
2018-04-02T10:34:43.861Z,63.03
2018-04-02T10:35:43.822Z,62.81
2018-04-02T10:36:43.810Z,62.62
2018-04-02T10:37:43.802Z,64.05
2018-04-02T10:38:43.780Z,64.05
2018-04-02T10:39:43.767Z,63.48
2018-04-02T10:40:43.755Z,64.15
2018-04-02T10:41:43.737Z,63.29
2018-04-02T10:42:43.717Z,64.05
2018-04-02T10:43:43.729Z,64.34
2018-04-02T10:44:43.679Z,63.86
2018-04-02T10:45:43.680Z,62.94
2018-04-02T10:46:43.673Z,62.94
2018-04-02T10:47:43.654Z,63.03
2018-04-02T10:48:43.680Z,61.86
2018-04-02T10:49:43.625Z,62.43
2018-04-02T10:50:43.605Z,62.81
2018-04-02T10:51:43.716Z,63.57
2018-04-02T10:52:43.560Z,63.67
2018-04-02T10:53:43.556Z,62.43
2018-04-02T10:54:43.549Z,62.71
2018-04-02T10:55:43.524Z,62.34
2018-04-02T10:56:43.512Z,62.15
2018-04-02T10:57:43.500Z,61.00
2018-04-02T10:58:43.567Z,61.10
2018-04-02T10:59:43.582Z,61.76
2018-04-02T11:00:43.439Z,61.98
2018-04-02T11:01:43.443Z,61.98
2018-04-02T11:02:43.435Z,62.84
2018-04-02T11:03:43.405Z,62.18
2018-04-02T11:04:43.410Z,63.03
2018-04-02T11:05:43.408Z,62.84
2018-04-02T11:06:43.349Z,62.08
2018-04-02T11:07:43.332Z,62.46
2018-04-02T11:08:43.350Z,61.98
2018-04-02T11:09:43.313Z,61.19
2018-04-02T11:10:43.319Z,61.76
2018-04-02T11:11:43.294Z,62.52
2018-04-02T11:12:43.268Z,63.10
2018-04-02T11:13:43.262Z,63.20
2018-04-02T11:14:43.244Z,62.37
2018-04-02T11:15:43.225Z,62.37
2018-04-02T11:16:43.244Z,62.27
2018-04-02T11:17:43.183Z,62.75
2018-04-02T11:18:43.178Z,62.59
2018-04-02T11:19:43.163Z,61.63
2018-04-02T11:20:43.153Z,61.16
2018-04-02T11:21:43.125Z,60.30
2018-04-02T11:22:43.118Z,60.49
2018-04-02T11:23:43.163Z,60.49
2018-04-02T11:24:43.086Z,60.49
2018-04-02T11:25:43.071Z,60.49
2018-04-02T11:26:43.100Z,60.42
2018-04-02T11:27:43.036Z,59.47
2018-04-02T11:28:43.055Z,59.56
2018-04-02T11:29:43.030Z,59.27
2018-04-02T11:30:43.034Z,58.89
2018-04-02T11:31:42.993Z,58.44
2018-04-02T11:32:42.986Z,57.68
2018-04-02T11:33:42.952Z,58.51
2018-04-02T11:34:42.943Z,59.08
2018-04-02T11:35:42.928Z,60.61
2018-04-02T11:36:42.934Z,61.28
2018-04-02T11:37:42.900Z,62.49
2018-04-02T11:38:42.901Z,62.01
2018-04-02T11:39:42.870Z,62.87
2018-04-02T11:40:42.857Z,62.87
2018-04-02T11:41:42.837Z,63.70
2018-04-02T11:42:42.855Z,64.47
2018-04-02T11:43:42.835Z,64.94
2018-04-02T11:44:42.789Z,67.05
2018-04-02T11:45:42.781Z,67.71
2018-04-02T11:46:42.805Z,68.29
2018-04-02T11:47:42.781Z,68.19
2018-04-02T11:48:42.732Z,67.91
2018-04-02T11:49:42.762Z,70.20
2018-04-02T11:50:42.710Z,68.96
2018-04-02T11:51:42.693Z,66.28
2018-04-02T11:52:42.701Z,65.52
2018-04-02T11:53:42.656Z,67.14
2018-04-02T11:54:42.652Z,67.05
2018-04-02T11:55:42.655Z,67.18
2018-04-02T11:56:42.643Z,67.08
2018-04-02T11:57:42.616Z,65.17
2018-04-02T11:58:42.641Z,65.07
2018-04-02T11:59:42.574Z,64.59
2018-04-02T12:00:42.564Z,64.69
2018-04-02T12:01:42.592Z,63.83
2018-04-02T12:02:42.543Z,63.10
2018-04-02T12:03:42.537Z,63.07
2018-04-02T12:04:42.498Z,64.02
2018-04-02T12:05:42.495Z,64.22
2018-04-02T12:06:42.482Z,63.54
2018-04-02T12:07:42.463Z,63.16
2018-04-02T12:08:42.437Z,62.68
2018-04-02T12:09:42.425Z,62.59
2018-04-02T12:10:42.421Z,62.68
2018-04-02T12:11:42.415Z,63.07
2018-04-02T12:12:42.378Z,62.78
2018-04-02T12:13:42.386Z,62.40
2018-04-02T12:14:42.363Z,62.87
2018-04-02T12:15:42.359Z,60.30
2018-04-02T12:16:42.329Z,57.65
2018-04-02T12:17:42.311Z,56.98
2018-04-02T12:18:42.318Z,54.49
2018-04-02T12:19:42.283Z,53.53
2018-04-02T12:20:42.282Z,53.25
2018-04-02T12:21:42.249Z,53.06
2018-04-02T12:22:42.305Z,53.06
2018-04-02T12:23:42.226Z,53.06
2018-04-02T12:24:42.216Z,52.48
2018-04-02T12:25:42.197Z,52.10
2018-04-02T12:26:42.185Z,52.48
2018-04-02T12:27:42.157Z,52.01
2018-04-02T12:28:42.203Z,51.72
2018-04-02T12:29:42.166Z,52.42
2018-04-02T12:30:42.117Z,51.84
2018-04-02T12:31:42.109Z,51.75
2018-04-02T12:32:42.113Z,50.98
2018-04-02T12:33:42.092Z,50.50
2018-04-02T12:34:42.079Z,50.60
2018-04-02T12:35:42.094Z,50.60
2018-04-02T12:36:42.091Z,51.27
2018-04-02T12:37:42.020Z,51.75
2018-04-02T12:38:42.025Z,51.27
2018-04-02T12:39:42.000Z,51.17
2018-04-02T12:40:42.588Z,51.17
2018-04-02T12:41:41.972Z,51.27
2018-04-02T12:42:41.952Z,51.46
2018-04-02T12:43:41.956Z,51.27
2018-04-02T12:44:41.936Z,50.98
2018-04-02T12:45:41.912Z,50.50
2018-04-02T12:46:41.899Z,50.50
2018-04-02T12:47:41.880Z,50.98
2018-04-02T12:48:41.872Z,50.50
2018-04-02T12:49:41.855Z,50.70
2018-04-02T12:50:41.846Z,50.52
2018-04-02T12:51:41.854Z,50.15
2018-04-02T12:52:41.834Z,49.95